createdAt,value
2019-01-23T00:02:18.355Z,-4.10
2019-01-23T00:04:46.161Z,-4.00
2019-01-23T00:07:13.779Z,-4.00
2019-01-23T00:09:41.173Z,-4.00
2019-01-23T00:12:08.631Z,-4.00
2019-01-23T00:14:36.130Z,-3.90
2019-01-23T00:17:03.978Z,-4.00
2019-01-23T00:19:31.341Z,-3.90
2019-01-23T00:21:58.720Z,-3.90
2019-01-23T00:24:26.381Z,-3.80
2019-01-23T00:26:53.813Z,-3.80
2019-01-23T00:29:22.118Z,-3.80
2019-01-23T00:31:49.819Z,-3.80
2019-01-23T00:34:17.321Z,-3.80
2019-01-23T00:36:44.832Z,-3.70
2019-01-23T00:39:12.465Z,-3.70
2019-01-23T00:41:39.852Z,-3.70
2019-01-23T00:44:08.531Z,-3.70
2019-01-23T00:46:36.122Z,-3.70
2019-01-23T00:49:03.760Z,-3.60
2019-01-23T00:51:31.484Z,-3.60
2019-01-23T00:53:59.000Z,-3.60
2019-01-23T00:56:26.405Z,-3.60
2019-01-23T00:58:53.820Z,-3.60
2019-01-23T01:01:22.398Z,-3.50
2019-01-23T01:03:49.790Z,-3.50
2019-01-23T01:06:17.401Z,-3.50
2019-01-23T01:08:45.048Z,-3.50
2019-01-23T01:11:12.664Z,-3.50
2019-01-23T01:13:40.352Z,-3.40
2019-01-23T01:16:07.853Z,-3.40
2019-01-23T01:18:35.481Z,-3.40
2019-01-23T01:21:03.070Z,-3.40
2019-01-23T01:23:30.706Z,-3.30
2019-01-23T01:25:58.160Z,-3.30
2019-01-23T01:28:25.600Z,-3.30
2019-01-23T01:30:53.215Z,-3.30
2019-01-23T01:33:20.709Z,-3.30
2019-01-23T01:35:48.273Z,-3.30
2019-01-23T01:38:15.676Z,-3.40
2019-01-23T01:40:43.254Z,-3.50
2019-01-23T01:43:11.010Z,-3.50
2019-01-23T01:45:38.577Z,-3.60
2019-01-23T01:48:06.219Z,-3.50
2019-01-23T01:50:33.936Z,-3.50
2019-01-23T01:53:01.537Z,-3.60
2019-01-23T01:55:29.181Z,-3.60
2019-01-23T01:58:00.306Z,-3.60
2019-01-23T02:00:27.800Z,-3.60
2019-01-23T02:02:55.455Z,-3.60
2019-01-23T02:05:23.136Z,-3.70
2019-01-23T02:07:51.327Z,-3.70
2019-01-23T02:10:20.199Z,-3.70
2019-01-23T02:12:48.672Z,-3.70
2019-01-23T02:15:17.304Z,-3.70
2019-01-23T02:17:45.075Z,-3.60
2019-01-23T02:20:18.983Z,-3.60
2019-01-23T02:22:47.752Z,-3.60
2019-01-23T02:25:15.493Z,-3.70
2019-01-23T02:27:44.126Z,-3.70
2019-01-23T02:30:14.166Z,-3.70
2019-01-23T02:32:41.965Z,-3.70
2019-01-23T02:35:09.655Z,-3.70
2019-01-23T02:37:37.378Z,-3.70
2019-01-23T02:40:09.250Z,-3.60
2019-01-23T02:42:37.894Z,-3.70
2019-01-23T02:45:05.941Z,-3.60
2019-01-23T02:47:33.700Z,-3.60
2019-01-23T02:50:01.220Z,-3.70
2019-01-23T02:52:28.811Z,-3.60
2019-01-23T02:54:56.400Z,-3.60
2019-01-23T02:57:24.045Z,-3.70
2019-01-23T02:59:51.693Z,-3.70
2019-01-23T03:02:19.369Z,-3.70
2019-01-23T03:04:47.044Z,-3.70
2019-01-23T03:07:14.695Z,-3.70
2019-01-23T03:09:43.283Z,-3.80
2019-01-23T03:12:10.970Z,-3.80
2019-01-23T03:14:38.426Z,-3.80
2019-01-23T03:17:06.051Z,-3.80
2019-01-23T03:19:33.797Z,-3.80
2019-01-23T03:22:01.499Z,-3.70
2019-01-23T03:24:28.893Z,-3.70
2019-01-23T03:26:56.591Z,-3.70
2019-01-23T03:29:24.719Z,-3.80
2019-01-23T03:31:52.570Z,-3.80
2019-01-23T03:34:20.293Z,-3.80
2019-01-23T03:36:47.810Z,-3.80
2019-01-23T03:39:15.574Z,-3.80
2019-01-23T03:41:43.278Z,-3.80
2019-01-23T03:44:10.898Z,-3.80
2019-01-23T03:46:38.323Z,-3.80
2019-01-23T03:49:05.848Z,-3.80
2019-01-23T03:51:33.477Z,-3.80
2019-01-23T03:54:01.422Z,-3.70
2019-01-23T03:56:28.879Z,-3.70
2019-01-23T03:58:57.076Z,-3.80
2019-01-23T04:01:24.889Z,-3.80
2019-01-23T04:03:52.459Z,-3.70
2019-01-23T04:06:20.136Z,-3.80
2019-01-23T04:08:47.688Z,-3.80
2019-01-23T04:11:15.074Z,-3.70
2019-01-23T04:13:42.705Z,-3.70
2019-01-23T04:16:10.239Z,-3.70
2019-01-23T04:18:38.284Z,-3.70
2019-01-23T04:21:05.902Z,-3.70
2019-01-23T04:23:33.451Z,-3.70
2019-01-23T04:26:00.902Z,-3.70
2019-01-23T04:28:28.351Z,-3.60
2019-01-23T04:30:56.062Z,-3.60
2019-01-23T04:33:23.527Z,-3.60
2019-01-23T04:35:51.040Z,-3.60
2019-01-23T04:38:18.630Z,-3.60
2019-01-23T04:40:46.180Z,-3.60
2019-01-23T04:43:13.593Z,-3.60
2019-01-23T04:45:41.206Z,-3.60
2019-01-23T04:48:08.594Z,-3.50
2019-01-23T04:50:56.062Z,-3.50
2019-01-23T04:53:31.738Z,-3.60
2019-01-23T04:55:59.274Z,-3.60
2019-01-23T04:58:26.891Z,-3.60
2019-01-23T05:00:54.569Z,-3.70
2019-01-23T05:03:22.335Z,-3.70
2019-01-23T05:05:50.041Z,-3.70
2019-01-23T05:08:17.460Z,-3.70
2019-01-23T05:10:46.306Z,-3.70
2019-01-23T05:13:13.892Z,-3.60
2019-01-23T05:15:41.404Z,-3.70
2019-01-23T05:18:09.143Z,-3.60
2019-01-23T05:20:36.713Z,-3.70
2019-01-23T05:23:04.389Z,-3.60
2019-01-23T05:25:31.915Z,-3.60
2019-01-23T05:27:59.389Z,-3.60
2019-01-23T05:30:27.030Z,-3.60
2019-01-23T05:32:54.669Z,-3.50
2019-01-23T05:35:22.296Z,-3.50
2019-01-23T05:37:49.811Z,-3.50
2019-01-23T05:40:17.466Z,-3.40
2019-01-23T05:42:45.075Z,-3.40
2019-01-23T05:45:13.172Z,-3.40
2019-01-23T05:47:41.001Z,-3.50
2019-01-23T05:50:11.762Z,-3.40
2019-01-23T05:52:39.312Z,-3.40
2019-01-23T05:55:08.706Z,-3.40
2019-01-23T05:57:36.264Z,-3.30
2019-01-23T06:00:07.558Z,-3.30
2019-01-23T06:02:35.443Z,-3.30
2019-01-23T06:05:04.784Z,-3.30
2019-01-23T06:07:32.578Z,-3.30
2019-01-23T06:10:00.307Z,-3.30
2019-01-23T06:12:28.152Z,-3.10
2019-01-23T06:14:55.706Z,-3.30
2019-01-23T06:17:23.465Z,-3.20
2019-01-23T06:19:50.920Z,-3.20
2019-01-23T06:22:18.636Z,-3.20
2019-01-23T06:24:46.191Z,-3.10
2019-01-23T06:27:13.724Z,-3.20
2019-01-23T06:29:41.181Z,-3.20
2019-01-23T06:32:08.883Z,-3.20
2019-01-23T06:34:36.340Z,-3.20
2019-01-23T06:37:04.143Z,-3.10
2019-01-23T06:39:31.791Z,-3.10
2019-01-23T06:41:59.318Z,-3.10
2019-01-23T06:44:26.717Z,-3.00
2019-01-23T06:46:55.742Z,-3.00
2019-01-23T06:49:23.151Z,-2.90
2019-01-23T06:51:53.410Z,-2.90
2019-01-23T06:54:21.246Z,-2.80
2019-01-23T06:56:50.752Z,-2.80
2019-01-23T06:59:18.304Z,-2.80
2019-01-23T07:01:46.037Z,-2.80
2019-01-23T07:04:13.635Z,-2.70
2019-01-23T07:06:41.118Z,-2.70
2019-01-23T07:09:08.920Z,-2.70
2019-01-23T07:11:36.649Z,-2.70
2019-01-23T07:14:04.447Z,-2.70
2019-01-23T07:16:31.946Z,-2.60
2019-01-23T07:18:59.737Z,-2.50
2019-01-23T07:21:27.278Z,-2.60
2019-01-23T07:23:55.002Z,-2.50
2019-01-23T07:26:22.583Z,-2.50
2019-01-23T07:28:50.436Z,-2.50
2019-01-23T07:31:17.978Z,-2.50
2019-01-23T07:33:46.742Z,-2.40
2019-01-23T07:36:14.365Z,-2.30
2019-01-23T07:38:41.997Z,-2.30
2019-01-23T07:41:09.727Z,-2.30
2019-01-23T07:43:37.542Z,-2.30
2019-01-23T07:46:05.205Z,-2.30
2019-01-23T07:48:36.370Z,-2.30
2019-01-23T07:51:04.294Z,-2.20
2019-01-23T07:53:31.871Z,-2.20
2019-01-23T07:55:59.494Z,-2.20
2019-01-23T07:58:27.025Z,-2.20
2019-01-23T08:00:54.601Z,-2.20
2019-01-23T08:03:22.095Z,-2.20
2019-01-23T08:05:49.976Z,-2.10
2019-01-23T08:08:18.257Z,-2.10
2019-01-23T08:10:45.950Z,-2.20
2019-01-23T08:13:13.724Z,-2.20
2019-01-23T08:16:10.946Z,-2.20
2019-01-23T08:18:38.842Z,-2.20
2019-01-23T08:21:10.463Z,-2.20
2019-01-23T08:23:43.032Z,-2.20
2019-01-23T08:26:11.657Z,-2.10
2019-01-23T08:28:39.322Z,-2.00
2019-01-23T08:31:06.996Z,-2.00
2019-01-23T08:33:34.400Z,-2.10
2019-01-23T08:36:02.243Z,-2.00
2019-01-23T08:38:30.903Z,-2.00
2019-01-23T08:40:58.525Z,-1.90
2019-01-23T08:43:26.171Z,-1.90
2019-01-23T08:45:53.807Z,-1.90
2019-01-23T08:48:21.423Z,-1.90
2019-01-23T08:50:49.419Z,-1.80
2019-01-23T08:53:17.050Z,-1.90
2019-01-23T08:55:44.445Z,-1.90
2019-01-23T08:58:11.975Z,-1.70
2019-01-23T09:00:45.842Z,-1.90
2019-01-23T09:03:09.110Z,-2.00
2019-01-23T09:05:36.671Z,-1.90
2019-01-23T09:08:05.435Z,-1.80
2019-01-23T09:10:33.257Z,-1.90
2019-01-23T09:13:01.781Z,-1.90
2019-01-23T09:15:29.473Z,-1.90
2019-01-23T09:17:56.940Z,-1.90
2019-01-23T09:20:24.397Z,-1.90
2019-01-23T09:22:51.821Z,-1.80
2019-01-23T09:25:21.766Z,-1.90
2019-01-23T09:27:49.635Z,-1.80
2019-01-23T09:30:24.630Z,-1.80
2019-01-23T09:33:19.317Z,-1.80
2019-01-23T09:36:14.788Z,-1.90
2019-01-23T09:39:37.300Z,-1.80
2019-01-23T09:42:40.603Z,-1.80
2019-01-23T09:46:24.423Z,-1.90
2019-01-23T09:50:10.404Z,-1.80
2019-01-23T09:53:11.375Z,-1.80
2019-01-23T09:55:39.181Z,-1.80
2019-01-23T09:58:09.145Z,-1.80
2019-01-23T10:00:36.723Z,-1.80
2019-01-23T10:03:04.412Z,-1.90
2019-01-23T10:05:31.887Z,-1.80
2019-01-23T10:07:59.328Z,-1.80
2019-01-23T10:10:27.745Z,-1.70
2019-01-23T10:12:55.209Z,-1.70
2019-01-23T10:15:54.675Z,-1.70
2019-01-23T10:18:22.387Z,-1.70
2019-01-23T10:20:49.839Z,-1.70
2019-01-23T10:23:17.227Z,-1.70
2019-01-23T10:25:44.900Z,-1.70
2019-01-23T10:28:12.258Z,-1.70
2019-01-23T10:30:39.832Z,-1.70
2019-01-23T10:33:07.448Z,-1.60
2019-01-23T10:35:35.109Z,-1.60
2019-01-23T10:38:02.763Z,-1.50
2019-01-23T10:40:30.296Z,-1.60
2019-01-23T10:42:57.752Z,-1.60
2019-01-23T10:45:25.202Z,-1.50
2019-01-23T10:47:56.144Z,-1.60
2019-01-23T10:50:22.148Z,-1.50
2019-01-23T10:52:49.581Z,-1.40
2019-01-23T10:55:17.062Z,-1.50
2019-01-23T10:57:44.930Z,-1.40
2019-01-23T11:00:15.892Z,-1.40
2019-01-23T11:02:43.585Z,-1.40
2019-01-23T11:05:15.212Z,-1.40
2019-01-23T11:07:43.730Z,-1.40
2019-01-23T11:10:14.682Z,-1.40
2019-01-23T11:12:42.457Z,-1.40
2019-01-23T11:15:10.415Z,-1.30
2019-01-23T11:17:38.169Z,-1.40
2019-01-23T11:20:09.767Z,-1.30
2019-01-23T11:22:37.352Z,-1.40
2019-01-23T11:25:06.157Z,-1.40
2019-01-23T11:27:34.228Z,-1.40
2019-01-23T11:30:01.833Z,-1.30
2019-01-23T11:32:29.419Z,-1.30
2019-01-23T11:34:57.116Z,-1.20
2019-01-23T11:37:24.832Z,-1.20
2019-01-23T11:39:52.502Z,-1.20
2019-01-23T11:42:20.177Z,-1.30
2019-01-23T11:44:47.746Z,-1.30
2019-01-23T11:47:15.371Z,-1.30
2019-01-23T11:49:42.832Z,-1.40
2019-01-23T11:52:10.670Z,-1.40
2019-01-23T11:54:38.207Z,-1.40
2019-01-23T11:57:06.202Z,-1.40
2019-01-23T11:59:33.598Z,-1.40
2019-01-23T12:02:01.430Z,-1.50
2019-01-23T12:04:28.884Z,-1.60
2019-01-23T12:06:56.798Z,-1.50
2019-01-23T12:09:24.343Z,-1.50
2019-01-23T12:11:51.898Z,-1.50
2019-01-23T12:14:19.291Z,-1.50
2019-01-23T12:16:46.742Z,-1.50
2019-01-23T12:19:14.169Z,-1.50
2019-01-23T12:21:41.741Z,-1.50
2019-01-23T12:24:09.404Z,-1.60
2019-01-23T12:26:37.294Z,-1.70
2019-01-23T12:29:05.453Z,-1.60
2019-01-23T12:31:35.101Z,-1.60
2019-01-23T12:34:02.452Z,-1.70
2019-01-23T12:36:29.935Z,-1.60
2019-01-23T12:38:57.484Z,-1.60
2019-01-23T12:41:25.048Z,-1.70
2019-01-23T12:43:52.717Z,-1.70
2019-01-23T12:46:20.510Z,-1.70
2019-01-23T12:48:48.011Z,-1.80
2019-01-23T12:51:15.549Z,-1.80
2019-01-23T12:53:43.103Z,-1.90
2019-01-23T12:56:10.592Z,-1.90
2019-01-23T12:58:38.697Z,-1.90
2019-01-23T13:01:06.197Z,-1.90
2019-01-23T13:03:33.797Z,-1.90
2019-01-23T13:06:01.560Z,-1.90
2019-01-23T13:08:29.017Z,-1.80
2019-01-23T13:10:58.170Z,-1.90
2019-01-23T13:13:25.661Z,-1.90
2019-01-23T13:15:54.561Z,-2.00
2019-01-23T13:18:22.042Z,-2.00
2019-01-23T13:20:49.749Z,-2.10
2019-01-23T13:23:19.794Z,-2.00
2019-01-23T13:25:47.504Z,-2.10
2019-01-23T13:28:14.894Z,-2.10
2019-01-23T13:30:42.580Z,-2.20
2019-01-23T13:33:10.290Z,-2.20
2019-01-23T13:35:38.983Z,-2.30
2019-01-23T13:38:11.433Z,-2.30
2019-01-23T13:40:38.997Z,-2.30
2019-01-23T13:43:07.116Z,-2.30
2019-01-23T13:45:34.833Z,-2.30
2019-01-23T13:48:06.279Z,-2.40
2019-01-23T13:50:33.914Z,-2.20
2019-01-23T13:53:02.123Z,-2.20
2019-01-23T13:55:29.751Z,-2.30
2019-01-23T13:57:57.326Z,-2.40
2019-01-23T14:00:28.752Z,-2.40
2019-01-23T14:02:56.430Z,-2.40
2019-01-23T14:05:24.205Z,-2.40
2019-01-23T14:07:51.673Z,-2.40
2019-01-23T14:10:19.268Z,-2.40
2019-01-23T14:12:46.850Z,-2.40
2019-01-23T14:15:19.360Z,-2.40
2019-01-23T14:17:46.827Z,-2.40
2019-01-23T14:20:14.948Z,-2.40
2019-01-23T14:22:42.625Z,-2.50
2019-01-23T14:25:12.222Z,-2.50
2019-01-23T14:27:39.893Z,-2.40
2019-01-23T14:30:14.661Z,-2.40
2019-01-23T14:32:42.116Z,-2.50
2019-01-23T14:35:09.913Z,-2.50
2019-01-23T14:37:37.267Z,-2.50
2019-01-23T14:40:05.241Z,-2.50
2019-01-23T14:42:32.741Z,-2.50
2019-01-23T14:45:02.034Z,-2.60
2019-01-23T14:47:30.050Z,-2.60
2019-01-23T14:49:58.106Z,-2.60
2019-01-23T14:52:25.707Z,-2.70
2019-01-23T14:54:53.212Z,-2.70
2019-01-23T14:57:20.853Z,-2.80
2019-01-23T14:59:48.665Z,-2.70
2019-01-23T15:02:16.280Z,-2.80
2019-01-23T15:04:43.852Z,-2.80
2019-01-23T15:07:11.823Z,-2.80
2019-01-23T15:09:39.297Z,-2.80
2019-01-23T15:12:07.428Z,-2.70
2019-01-23T15:14:34.987Z,-2.80
2019-01-23T15:17:02.734Z,-2.80
2019-01-23T15:19:30.342Z,-2.90
2019-01-23T15:21:57.889Z,-2.80
2019-01-23T15:24:25.354Z,-3.00
2019-01-23T15:26:53.117Z,-2.90
2019-01-23T15:29:20.598Z,-3.00
2019-01-23T15:31:48.042Z,-2.90
2019-01-23T15:34:16.386Z,-3.00
2019-01-23T15:36:43.970Z,-3.10
2019-01-23T15:39:11.596Z,-3.10
2019-01-23T15:41:39.195Z,-3.10
2019-01-23T15:44:07.846Z,-3.10
2019-01-23T15:46:35.401Z,-3.10
2019-01-23T15:49:03.740Z,-3.10
2019-01-23T15:51:31.540Z,-3.10
2019-01-23T15:53:59.076Z,-3.10
2019-01-23T15:56:26.543Z,-3.10
2019-01-23T17:10:40.341Z,-3.10
2019-01-23T17:13:09.144Z,-3.10
2019-01-23T17:15:36.964Z,-3.10
2019-01-23T17:18:06.370Z,-3.10
2019-01-23T17:20:41.794Z,-3.10
2019-01-23T17:23:09.784Z,-3.10
2019-01-23T17:25:37.676Z,-3.20
2019-01-23T17:28:09.628Z,-3.30
2019-01-23T17:30:37.505Z,-3.20
2019-01-23T17:33:05.784Z,-3.10
2019-01-23T17:35:33.502Z,-3.10
2019-01-23T17:38:01.407Z,-3.10
2019-01-23T17:40:30.034Z,-3.10
2019-01-23T17:42:57.866Z,-3.10
2019-01-23T17:45:29.300Z,-3.10
2019-01-23T17:47:57.296Z,-3.10
2019-01-23T17:50:25.000Z,-3.10
2019-01-23T17:52:53.247Z,-3.10
2019-01-23T17:55:29.412Z,-3.10
2019-01-23T17:57:58.298Z,-3.10
2019-01-23T18:00:28.358Z,-3.10
2019-01-23T18:02:56.184Z,-3.10
2019-01-23T18:05:24.086Z,-3.10
2019-01-23T18:07:51.821Z,-3.10
2019-01-23T18:10:19.583Z,-3.10
2019-01-23T18:12:47.199Z,-3.10
2019-01-23T18:15:17.769Z,-3.10
2019-01-23T18:17:45.801Z,-3.10
2019-01-23T18:20:17.149Z,-3.10
2019-01-23T18:22:46.864Z,-3.20
2019-01-23T18:25:15.183Z,-3.20
2019-01-23T18:27:43.382Z,-3.20
2019-01-23T18:30:18.661Z,-3.20
2019-01-23T18:32:47.899Z,-3.30
2019-01-23T18:35:35.420Z,-3.30
2019-01-23T18:38:38.823Z,-3.20
2019-01-23T18:41:57.642Z,-3.20
2019-01-23T18:45:41.176Z,-3.10
2019-01-23T18:49:30.729Z,-3.10
2019-01-23T18:52:10.890Z,-3.10
2019-01-23T18:54:39.877Z,-3.10
2019-01-23T18:57:11.868Z,-3.10
2019-01-23T18:59:39.674Z,-3.10
2019-01-23T19:02:07.679Z,-3.10
2019-01-23T19:04:35.431Z,-3.10
2019-01-23T19:07:03.264Z,-3.10
2019-01-23T19:09:31.001Z,-3.10
2019-01-23T19:11:59.171Z,-3.10
2019-01-23T19:14:26.980Z,-3.20
2019-01-23T19:16:54.741Z,-3.20
2019-01-23T19:19:22.618Z,-3.30
2019-01-23T19:21:55.005Z,-3.20
2019-01-23T19:24:20.830Z,-3.20
2019-01-23T19:26:48.388Z,-3.20
2019-01-23T19:29:15.938Z,-3.10
2019-01-23T19:31:43.687Z,-3.10
2019-01-23T19:34:11.376Z,-3.10
2019-01-23T19:36:39.299Z,-3.20
2019-01-23T19:39:08.399Z,-3.20
2019-01-23T19:41:37.065Z,-3.20
2019-01-23T19:44:06.092Z,-3.30
2019-01-23T19:46:35.709Z,-3.30
2019-01-23T19:49:03.562Z,-3.20
2019-01-23T19:51:32.101Z,-3.20
2019-01-23T19:53:59.930Z,-3.20
2019-01-23T19:56:28.565Z,-3.20
2019-01-23T19:58:56.257Z,-3.10
2019-01-23T20:01:24.688Z,-3.20
2019-01-23T20:03:53.209Z,-3.20
2019-01-23T20:06:20.944Z,-3.30
2019-01-23T20:08:49.816Z,-3.30
2019-01-23T20:11:17.533Z,-3.30
2019-01-23T20:13:45.417Z,-3.20
2019-01-23T20:16:13.080Z,-3.30
2019-01-23T20:18:41.698Z,-3.40
2019-01-23T20:21:09.892Z,-3.30
2019-01-23T20:23:37.505Z,-3.30
2019-01-23T20:26:06.255Z,-3.30
2019-01-23T20:28:39.430Z,-3.30
2019-01-23T20:31:07.022Z,-3.30
2019-01-23T20:33:45.751Z,-3.30
2019-01-23T20:36:27.369Z,-3.40
2019-01-23T20:39:08.927Z,-3.30
2019-01-23T20:41:45.592Z,-3.30
2019-01-23T20:44:19.924Z,-3.40
2019-01-23T20:46:52.156Z,-3.40
2019-01-23T20:49:20.221Z,-3.50
2019-01-23T20:51:47.852Z,-3.50
2019-01-23T20:54:15.714Z,-3.50
2019-01-23T20:56:45.283Z,-3.50
2019-01-23T20:59:15.993Z,-3.60
2019-01-23T21:01:47.786Z,-3.50
2019-01-23T21:04:16.887Z,-3.50
2019-01-23T21:06:45.385Z,-3.60
2019-01-23T21:09:18.623Z,-3.50
2019-01-23T21:11:47.530Z,-3.50
2019-01-23T21:14:15.302Z,-3.50
2019-01-23T21:16:42.970Z,-3.40
2019-01-23T21:19:10.556Z,-3.50
2019-01-23T21:21:38.485Z,-3.50
2019-01-23T21:24:07.806Z,-3.50
2019-01-23T21:26:35.419Z,-3.50
2019-01-23T21:29:03.242Z,-3.50
2019-01-23T21:31:30.977Z,-3.60
2019-01-23T21:33:58.608Z,-3.50
2019-01-23T21:36:26.103Z,-3.40
2019-01-23T21:38:53.802Z,-3.60
2019-01-23T21:41:21.884Z,-3.50
2019-01-23T21:43:49.643Z,-3.50
2019-01-23T21:46:17.360Z,-3.50
2019-01-23T21:48:45.222Z,-3.50
2019-01-23T21:51:13.464Z,-3.50
2019-01-23T21:53:41.096Z,-3.50
2019-01-23T21:56:08.622Z,-3.60
2019-01-23T21:58:36.860Z,-3.60
2019-01-23T22:01:05.414Z,-3.60
2019-01-23T22:03:33.222Z,-3.60
2019-01-23T22:06:01.076Z,-3.60
2019-01-23T22:08:28.665Z,-3.60
2019-01-23T22:10:56.289Z,-3.50
2019-01-23T22:13:24.471Z,-3.50
2019-01-23T22:15:52.182Z,-3.50
2019-01-23T22:18:19.763Z,-3.60
2019-01-23T22:20:47.222Z,-3.60
2019-01-23T22:23:14.831Z,-3.50
2019-01-23T22:25:43.384Z,-3.50
2019-01-23T22:28:10.887Z,-3.50
2019-01-23T22:30:38.526Z,-3.60
2019-01-23T22:33:06.179Z,-3.60
2019-01-23T22:35:33.931Z,-3.60
2019-01-23T22:38:02.025Z,-3.60
2019-01-23T22:40:29.623Z,-3.70
2019-01-23T22:42:57.250Z,-3.60
2019-01-23T22:45:25.627Z,-3.60
2019-01-23T22:47:53.100Z,-3.60
2019-01-23T22:50:24.079Z,-3.70
2019-01-23T22:52:51.956Z,-3.70
2019-01-23T22:55:20.866Z,-3.60
2019-01-23T22:57:48.466Z,-3.60
2019-01-23T23:00:41.719Z,-3.60
2019-01-23T23:03:13.621Z,-3.70
2019-01-23T23:05:41.400Z,-3.70
2019-01-23T23:08:08.980Z,-3.60
2019-01-23T23:10:36.996Z,-3.60
2019-01-23T23:13:04.758Z,-3.60
2019-01-23T23:15:32.352Z,-3.60
2019-01-23T23:17:59.878Z,-3.70
2019-01-23T23:20:27.447Z,-3.70
2019-01-23T23:22:54.954Z,-3.60
2019-01-23T23:25:23.133Z,-3.60
2019-01-23T23:27:50.887Z,-3.60
2019-01-23T23:30:18.852Z,-3.60
2019-01-23T23:32:46.380Z,-3.60
2019-01-23T23:35:13.885Z,-3.70
2019-01-23T23:37:41.617Z,-3.70
2019-01-23T23:40:09.420Z,-3.60
2019-01-23T23:42:37.064Z,-3.60
2019-01-23T23:45:58.136Z,-3.60
2019-01-23T23:48:25.777Z,-3.70
2019-01-23T23:50:53.534Z,-3.60
2019-01-23T23:53:21.556Z,-3.60
2019-01-23T23:55:49.007Z,-3.60
2019-01-23T23:58:16.722Z,-3.60
